Time;durP1;ratioP1;P1;durP2;ratioP2;P2;SDS_P1;SDS_P2;PMS_P1;PMS_P2;Temp;Humidity;BMP_temperature;BMP_pressure;BME280_temperature;BME280_humidity;BME280_pressure;Samples;Min_cycle;Max_cycle;Signal;HPM_P1;HPM_P2
2022/01/28 00:01:13;;;;;;;1.38;0.95;;;;;;;;;;5054545;28;20021;-53
2022/01/28 00:03:40;;;;;;;1.35;0.70;;;;;;;;;;5065172;28;20032;-56
2022/01/28 00:06:07;;;;;;;0.85;0.60;;;;;;;;;;5061527;28;20123;-53
2022/01/28 00:08:33;;;;;;;1.67;0.68;;;;;;;;;;5043801;28;20033;-53
2022/01/28 00:10:59;;;;;;;1.65;0.70;;;;;;;;;;5071040;28;20017;-51
2022/01/28 00:13:31;;;;;;;0.70;0.60;;;;;;;;;;5070359;28;20028;-53
2022/01/28 00:16:23;;;;;;;1.45;0.55;;;;;;;;;;5071496;28;20059;-53
2022/01/28 00:38:04;;;;;;;1.05;0.73;;;;;;;;;;5057608;28;20143;-58
2022/01/28 00:40:31;;;;;;;0.75;0.57;;;;;;;;;;5045501;28;20388;-59
2022/01/28 00:42:57;;;;;;;1.60;1.02;;;;;;;;;;5061674;28;20375;-58
2022/01/28 00:45:23;;;;;;;2.33;0.68;;;;;;;;;;5061873;28;20031;-58
2022/01/28 00:47:49;;;;;;;1.70;1.10;;;;;;;;;;5060604;28;20032;-58
2022/01/28 00:50:16;;;;;;;1.92;0.65;;;;;;;;;;5061406;28;20024;-58
2022/01/28 00:52:42;;;;;;;0.95;0.52;;;;;;;;;;5056522;28;20044;-58
2022/01/28 00:55:08;;;;;;;4.07;0.60;;;;;;;;;;5057677;28;20048;-60
2022/01/28 00:57:34;;;;;;;1.42;0.77;;;;;;;;;;5061266;28;20479;-59
2022/01/28 01:00:00;;;;;;;1.50;1.13;;;;;;;;;;5061398;28;20024;-58
2022/01/28 01:02:26;;;;;;;1.17;0.52;;;;;;;;;;5060533;28;20466;-58
2022/01/28 01:04:52;;;;;;;1.10;0.65;;;;;;;;;;5048171;28;20024;-58
2022/01/28 01:07:18;;;;;;;1.08;0.68;;;;;;;;;;5066780;28;20081;-58
2022/01/28 01:09:45;;;;;;;1.33;0.65;;;;;;;;;;5061597;28;20469;-58
2022/01/28 01:12:12;;;;;;;0.52;0.52;;;;;;;;;;5062786;28;20016;-60
2022/01/28 01:14:39;;;;;;;1.20;0.98;;;;;;;;;;5063733;28;20024;-58
2022/01/28 01:17:29;;;;;;;1.25;0.70;;;;;;;;;;5061606;28;20021;-58
2022/01/28 01:20:12;;;;;;;0.82;0.63;;;;;;;;;;5064483;28;20032;-58
2022/01/28 01:22:39;;;;;;;1.23;0.50;;;;;;;;;;5064575;28;20542;-58
2022/01/28 01:25:15;;;;;;;0.50;0.50;;;;;;;;;;5062638;28;20024;-58
2022/01/28 01:27:42;;;;;;;2.45;0.60;;;;;;;;;;5062693;28;20041;-59
2022/01/28 01:30:08;;;;;;;1.48;1.05;;;;;;;;;;5063982;28;20096;-58
2022/01/28 01:32:34;;;;;;;1.15;0.80;;;;;;;;;;5063111;28;20017;-58
2022/01/28 01:35:00;;;;;;;0.82;0.68;;;;;;;;;;5062892;28;20124;-58
2022/01/28 01:37:26;;;;;;;1.52;0.80;;;;;;;;;;5061699;28;20059;-58
2022/01/28 01:39:53;;;;;;;1.00;0.70;;;;;;;;;;5045796;28;20120;-58
2022/01/28 01:42:33;;;;;;;0.73;0.52;;;;;;;;;;5063746;28;20377;-58
2022/01/28 01:53:21;;;;;;;0.95;0.70;;;;;;;;;;5063247;28;20039;-58
2022/01/28 01:55:48;;;;;;;1.00;0.63;;;;;;;;;;5064534;28;20070;-58
2022/01/28 01:58:14;;;;;;;1.10;1.00;;;;;;;;;;5063806;28;20465;-59
2022/01/28 02:00:40;;;;;;;1.10;0.55;;;;;;;;;;5063454;28;20489;-59
2022/01/28 02:03:06;;;;;;;0.82;0.60;;;;;;;;;;5061906;28;20381;-58
2022/01/28 02:05:32;;;;;;;1.02;0.60;;;;;;;;;;5062575;28;20211;-58
2022/01/28 02:08:05;;;;;;;0.95;0.55;;;;;;;;;;5062627;28;20067;-58
2022/01/28 02:10:32;;;;;;;1.50;0.70;;;;;;;;;;5061699;28;20144;-58
2022/01/28 02:12:58;;;;;;;1.02;0.63;;;;;;;;;;5063622;28;20024;-58
2022/01/28 02:15:24;;;;;;;0.80;0.68;;;;;;;;;;5056153;28;20036;-58
2022/01/28 02:17:50;;;;;;;0.98;0.50;;;;;;;;;;5064823;28;20052;-58
2022/01/28 02:20:19;;;;;;;0.52;0.52;;;;;;;;;;5058938;28;20032;-59
2022/01/28 02:22:45;;;;;;;0.90;0.50;;;;;;;;;;5068470;28;20025;-59
2022/01/28 02:25:41;;;;;;;3.05;0.80;;;;;;;;;;5055845;28;20025;-60
2022/01/28 02:28:10;;;;;;;0.52;0.45;;;;;;;;;;5041582;28;20040;-58
2022/01/28 02:30:36;;;;;;;1.20;0.70;;;;;;;;;;5066060;28;20051;-58
2022/01/28 02:33:36;;;;;;;1.55;0.50;;;;;;;;;;5055948;28;20044;-58
2022/01/28 02:35:56;;;;;;;0.85;0.80;;;;;;;;;;5057470;28;20028;-58
2022/01/28 02:38:23;;;;;;;0.60;0.50;;;;;;;;;;5071121;28;20078;-58
2022/01/28 02:40:56;;;;;;;1.30;0.70;;;;;;;;;;5072321;28;20071;-58
2022/01/28 02:43:46;;;;;;;1.05;0.63;;;;;;;;;;5053132;28;20028;-58
2022/01/28 02:46:15;;;;;;;1.27;0.68;;;;;;;;;;5071468;28;20075;-60
2022/01/28 02:48:52;;;;;;;1.08;0.55;;;;;;;;;;5072062;28;20033;-58
2022/01/28 02:51:20;;;;;;;0.70;0.57;;;;;;;;;;5068384;28;20029;-59
2022/01/28 02:53:54;;;;;;;0.70;0.60;;;;;;;;;;5072298;28;20027;-58
2022/01/28 02:56:24;;;;;;;1.08;0.63;;;;;;;;;;5061344;28;20075;-58
2022/01/28 02:58:50;;;;;;;1.70;0.60;;;;;;;;;;5068987;28;20090;-58
2022/01/28 03:01:17;;;;;;;0.80;0.50;;;;;;;;;;5054469;28;20098;-59
2022/01/28 03:03:44;;;;;;;1.58;0.50;;;;;;;;;;5071158;28;20074;-58
2022/01/28 03:06:11;;;;;;;2.72;0.77;;;;;;;;;;5061319;28;20102;-59
2022/01/28 03:08:37;;;;;;;0.73;0.47;;;;;;;;;;5066018;28;20028;-58
2022/01/28 03:16:16;;;;;;;0.88;0.68;;;;;;;;;;5064332;28;20032;-60
2022/01/28 03:18:56;;;;;;;1.10;0.60;;;;;;;;;;5071552;28;20382;-58
2022/01/28 03:23:59;;;;;;;0.68;0.50;;;;;;;;;;5071604;28;20032;-58
2022/01/28 03:26:27;;;;;;;0.40;0.40;;;;;;;;;;5070819;28;20031;-59
2022/01/28 03:28:53;;;;;;;1.60;0.80;;;;;;;;;;5054709;28;20462;-59
2022/01/28 03:31:19;;;;;;;0.77;0.40;;;;;;;;;;5070433;28;20027;-59
2022/01/28 03:33:45;;;;;;;0.90;0.50;;;;;;;;;;5065351;28;20017;-58
2022/01/28 03:36:13;;;;;;;0.80;0.45;;;;;;;;;;5070892;28;20078;-60
2022/01/28 03:38:39;;;;;;;1.33;0.60;;;;;;;;;;5056697;28;20041;-58
2022/01/28 03:41:06;;;;;;;0.60;0.50;;;;;;;;;;5067923;28;20138;-59
2022/01/28 03:43:32;;;;;;;1.15;0.60;;;;;;;;;;5069056;28;20013;-58
2022/01/28 03:45:58;;;;;;;1.00;0.40;;;;;;;;;;5062361;28;20040;-58
2022/01/28 03:48:24;;;;;;;1.25;0.85;;;;;;;;;;5062949;28;20397;-58
2022/01/28 03:50:51;;;;;;;1.20;0.63;;;;;;;;;;5055232;28;20021;-59
2022/01/28 03:53:18;;;;;;;0.68;0.55;;;;;;;;;;5070149;28;20024;-58
2022/01/28 03:55:45;;;;;;;0.50;0.50;;;;;;;;;;5064785;28;20028;-58
2022/01/28 03:58:11;;;;;;;1.58;0.60;;;;;;;;;;5043355;28;20086;-60
2022/01/28 04:00:37;;;;;;;1.05;0.60;;;;;;;;;;5057275;28;20373;-58
2022/01/28 04:13:51;;;;;;;0.57;0.50;;;;;;;;;;5064296;28;20176;-58
2022/01/28 04:18:44;;;;;;;0.73;0.70;;;;;;;;;;5060023;28;20124;-58
2022/01/28 04:21:10;;;;;;;0.55;0.55;;;;;;;;;;5056038;28;20155;-58
2022/01/28 04:23:36;;;;;;;1.98;0.70;;;;;;;;;;5075046;28;20039;-58
2022/01/28 04:26:01;;;;;;;1.20;0.85;;;;;;;;;;5074811;28;20017;-58
2022/01/28 04:28:27;;;;;;;1.02;0.60;;;;;;;;;;5061655;28;20210;-58
2022/01/28 04:30:53;;;;;;;1.35;0.70;;;;;;;;;;5071928;28;20174;-59
2022/01/28 04:33:20;;;;;;;1.20;0.85;;;;;;;;;;5058206;28;20420;-58
2022/01/28 04:35:48;;;;;;;1.10;0.55;;;;;;;;;;5067897;28;20107;-58
2022/01/28 04:41:00;;;;;;;1.17;0.60;;;;;;;;;;5074951;28;20032;-58
2022/01/28 04:43:34;;;;;;;0.93;0.55;;;;;;;;;;5072409;28;20056;-58
2022/01/28 04:46:16;;;;;;;1.67;0.50;;;;;;;;;;5074771;28;20043;-58
2022/01/28 04:48:52;;;;;;;0.55;0.50;;;;;;;;;;5075142;28;20024;-58
2022/01/28 04:51:43;;;;;;;2.65;0.88;;;;;;;;;;5074259;28;20390;-58
2022/01/28 04:59:37;;;;;;;0.63;0.55;;;;;;;;;;5072909;28;20043;-58
2022/01/28 05:23:54;;;;;;;0.63;0.55;;;;;;;;;;5057994;28;20083;-58
2022/01/28 05:28:56;;;;;;;1.98;0.60;;;;;;;;;;5073970;28;20070;-58
2022/01/28 05:31:22;;;;;;;2.47;0.75;;;;;;;;;;5073523;28;20024;-58
2022/01/28 05:33:49;;;;;;;0.60;0.60;;;;;;;;;;5074034;28;20032;-58
2022/01/28 05:36:15;;;;;;;1.20;0.52;;;;;;;;;;5073033;28;20024;-58
2022/01/28 05:38:41;;;;;;;0.95;0.60;;;;;;;;;;5059265;28;20388;-58
2022/01/28 05:41:07;;;;;;;2.05;0.50;;;;;;;;;;5070511;28;20078;-58
2022/01/28 05:43:33;;;;;;;0.93;0.60;;;;;;;;;;5071911;28;20052;-58
2022/01/28 05:45:59;;;;;;;0.95;0.47;;;;;;;;;;5068298;28;20463;-60
2022/01/28 05:48:25;;;;;;;1.33;0.60;;;;;;;;;;5073045;28;20024;-59
2022/01/28 05:50:51;;;;;;;1.30;0.70;;;;;;;;;;5057681;28;20056;-59
2022/01/28 05:53:17;;;;;;;1.20;0.55;;;;;;;;;;5069710;28;20119;-59
2022/01/28 05:55:43;;;;;;;0.77;0.60;;;;;;;;;;5060324;28;20116;-58
2022/01/28 05:58:09;;;;;;;1.10;0.93;;;;;;;;;;5064096;28;20060;-58
2022/01/28 06:00:35;;;;;;;1.30;0.70;;;;;;;;;;5066720;28;20099;-58
2022/01/28 06:03:01;;;;;;;1.88;0.88;;;;;;;;;;5071950;28;20029;-59
2022/01/28 06:05:30;;;;;;;0.63;0.60;;;;;;;;;;5063365;28;20036;-58
2022/01/28 06:07:57;;;;;;;1.55;0.65;;;;;;;;;;5072923;28;20047;-58
2022/01/28 06:10:23;;;;;;;1.35;0.90;;;;;;;;;;5060294;28;20036;-58
2022/01/28 06:12:49;;;;;;;1.05;0.60;;;;;;;;;;5069311;28;20417;-58
2022/01/28 06:15:15;;;;;;;0.80;0.60;;;;;;;;;;5066455;28;20028;-58
2022/01/28 06:17:41;;;;;;;1.33;1.23;;;;;;;;;;5066364;28;20098;-56
2022/01/28 06:20:08;;;;;;;1.45;0.50;;;;;;;;;;5071763;28;20043;-58
2022/01/28 06:22:40;;;;;;;1.35;1.10;;;;;;;;;;5058673;28;20247;-57
2022/01/28 06:25:07;;;;;;;1.00;0.50;;;;;;;;;;5069373;28;20021;-58
2022/01/28 06:27:33;;;;;;;1.52;0.57;;;;;;;;;;5058070;28;20024;-58
2022/01/28 06:29:59;;;;;;;1.40;0.68;;;;;;;;;;5063681;28;20469;-58
2022/01/28 06:32:25;;;;;;;1.75;0.82;;;;;;;;;;5064739;28;20557;-56
2022/01/28 06:34:51;;;;;;;1.20;0.80;;;;;;;;;;5057378;28;20466;-57
2022/01/28 06:37:17;;;;;;;0.80;0.60;;;;;;;;;;5068467;28;20040;-56
2022/01/28 06:39:43;;;;;;;0.98;0.88;;;;;;;;;;5040895;28;20529;-58
2022/01/28 06:42:09;;;;;;;1.70;0.63;;;;;;;;;;5069186;28;20025;-58
2022/01/28 06:44:35;;;;;;;1.40;0.70;;;;;;;;;;5065613;28;20074;-58
2022/01/28 06:47:01;;;;;;;1.30;0.55;;;;;;;;;;5063113;28;20013;-58
2022/01/28 06:49:27;;;;;;;1.05;0.50;;;;;;;;;;5048971;28;20519;-58
2022/01/28 06:51:53;;;;;;;0.95;0.70;;;;;;;;;;5064008;28;20024;-58
2022/01/28 06:54:19;;;;;;;0.80;0.50;;;;;;;;;;5051743;28;20103;-58
2022/01/28 06:56:45;;;;;;;1.33;0.88;;;;;;;;;;5068550;28;20027;-57
2022/01/28 06:59:11;;;;;;;0.75;0.55;;;;;;;;;;5068655;28;20036;-56
2022/01/28 07:01:38;;;;;;;1.25;0.65;;;;;;;;;;5057023;28;20024;-57
2022/01/28 07:04:04;;;;;;;1.35;0.85;;;;;;;;;;5067507;28;20458;-55
2022/01/28 07:06:30;;;;;;;1.27;0.90;;;;;;;;;;5071269;28;20423;-56
2022/01/28 07:08:56;;;;;;;2.15;0.75;;;;;;;;;;5055008;28;20036;-55
2022/01/28 07:11:22;;;;;;;1.15;0.70;;;;;;;;;;5071076;28;20024;-54
2022/01/28 07:13:48;;;;;;;1.17;0.63;;;;;;;;;;5064554;28;20386;-54
2022/01/28 07:16:14;;;;;;;0.77;0.77;;;;;;;;;;5063379;28;20025;-55
2022/01/28 07:18:40;;;;;;;1.42;0.60;;;;;;;;;;5057243;28;20045;-55
2022/01/28 07:21:06;;;;;;;0.70;0.60;;;;;;;;;;5071165;28;20104;-54
2022/01/28 07:23:32;;;;;;;1.02;0.70;;;;;;;;;;5065814;28;20078;-55
2022/01/28 07:25:58;;;;;;;1.45;0.60;;;;;;;;;;5042905;28;20067;-55
2022/01/28 07:28:25;;;;;;;1.23;0.52;;;;;;;;;;5059251;28;20029;-51
2022/01/28 07:30:51;;;;;;;1.35;0.82;;;;;;;;;;5068303;28;20027;-51
2022/01/28 07:33:17;;;;;;;0.68;0.60;;;;;;;;;;5054782;28;20024;-52
2022/01/28 07:35:44;;;;;;;1.27;0.65;;;;;;;;;;5068091;28;20055;-53
2022/01/28 07:38:10;;;;;;;1.77;0.70;;;;;;;;;;5071516;28;20056;-52
2022/01/28 07:40:36;;;;;;;1.00;0.50;;;;;;;;;;5070701;28;20036;-53
2022/01/28 07:43:03;;;;;;;1.25;0.90;;;;;;;;;;5067559;28;20480;-54
2022/01/28 07:45:29;;;;;;;2.28;0.60;;;;;;;;;;5064839;28;20137;-53
2022/01/28 07:47:55;;;;;;;1.02;0.85;;;;;;;;;;5067991;28;20032;-53
2022/01/28 07:50:21;;;;;;;2.75;0.90;;;;;;;;;;5057936;28;20431;-56
2022/01/28 07:52:47;;;;;;;1.00;0.90;;;;;;;;;;5066462;28;20021;-52
2022/01/28 07:55:14;;;;;;;1.60;0.90;;;;;;;;;;5065424;28;20102;-51
2022/01/28 07:57:41;;;;;;;2.42;0.57;;;;;;;;;;5068813;28;20028;-52
2022/01/28 08:00:08;;;;;;;1.08;0.95;;;;;;;;;;5062007;28;20462;-54
2022/01/28 08:02:34;;;;;;;3.00;0.98;;;;;;;;;;5063298;28;20024;-53
2022/01/28 08:05:00;;;;;;;3.75;0.82;;;;;;;;;;5069787;28;20362;-52
2022/01/28 08:07:26;;;;;;;1.65;0.88;;;;;;;;;;5070159;28;20039;-49
2022/01/28 08:09:52;;;;;;;1.15;0.70;;;;;;;;;;5062527;28;20038;-53
2022/01/28 08:12:18;;;;;;;1.10;0.93;;;;;;;;;;5062233;28;20381;-56
2022/01/28 08:14:44;;;;;;;3.45;0.93;;;;;;;;;;5054939;28;20051;-54
2022/01/28 08:17:11;;;;;;;0.82;0.70;;;;;;;;;;5067429;28;20035;-56
2022/01/28 08:19:37;;;;;;;2.35;0.82;;;;;;;;;;5055654;28;20028;-55
2022/01/28 08:22:03;;;;;;;3.83;0.73;;;;;;;;;;5070252;28;20376;-50
2022/01/28 08:24:29;;;;;;;2.28;1.40;;;;;;;;;;5069534;28;20411;-55
2022/01/28 08:26:55;;;;;;;4.18;1.10;;;;;;;;;;5070954;28;20047;-59
2022/01/28 08:29:21;;;;;;;1.98;0.93;;;;;;;;;;5070005;28;20025;-58
2022/01/28 08:31:48;;;;;;;1.70;0.75;;;;;;;;;;5066181;28;20116;-49
2022/01/28 08:34:14;;;;;;;4.32;0.82;;;;;;;;;;5071026;28;20103;-48
2022/01/28 08:36:40;;;;;;;1.67;0.80;;;;;;;;;;5059186;28;20477;-45
2022/01/28 08:39:08;;;;;;;1.52;0.65;;;;;;;;;;5070118;28;20072;-46
2022/01/28 08:41:36;;;;;;;5.50;1.10;;;;;;;;;;5065777;28;20029;-48
2022/01/28 08:44:03;;;;;;;1.17;0.60;;;;;;;;;;5070556;28;20020;-47
2022/01/28 08:46:28;;;;;;;3.13;0.90;;;;;;;;;;5051802;28;20385;-48
2022/01/28 08:48:54;;;;;;;3.65;0.77;;;;;;;;;;5070754;28;20028;-47
2022/01/28 08:51:21;;;;;;;3.72;0.90;;;;;;;;;;5069723;28;20028;-58
2022/01/28 08:53:47;;;;;;;3.97;0.63;;;;;;;;;;5070654;28;20024;-48
2022/01/28 08:56:13;;;;;;;3.45;0.70;;;;;;;;;;5070674;28;20085;-50
2022/01/28 08:58:39;;;;;;;2.17;0.60;;;;;;;;;;5067384;28;20443;-49
2022/01/28 09:01:05;;;;;;;0.60;0.40;;;;;;;;;;5070849;28;20025;-52
2022/01/28 09:03:33;;;;;;;1.70;0.82;;;;;;;;;;5073413;28;20401;-51
2022/01/28 09:05:59;;;;;;;4.30;1.02;;;;;;;;;;5075699;28;20029;-47
2022/01/28 09:08:26;;;;;;;5.88;1.23;;;;;;;;;;5076722;28;20020;-58
2022/01/28 09:13:39;;;;;;;5.15;1.05;;;;;;;;;;5059843;28;20105;-62
2022/01/28 09:16:05;;;;;;;1.17;0.73;;;;;;;;;;5074050;28;20492;-59
2022/01/28 09:18:32;;;;;;;5.25;1.40;;;;;;;;;;5073571;28;20033;-59
2022/01/28 09:20:58;;;;;;;4.68;1.23;;;;;;;;;;5074088;28;20056;-59
2022/01/28 09:23:24;;;;;;;4.32;1.40;;;;;;;;;;5073459;28;20024;-61
2022/01/28 09:25:50;;;;;;;6.53;1.20;;;;;;;;;;5074322;28;20414;-61
2022/01/28 09:28:16;;;;;;;2.30;0.80;;;;;;;;;;5061190;28;20539;-58
2022/01/28 09:30:42;;;;;;;2.20;1.00;;;;;;;;;;5070786;28;20111;-58
2022/01/28 09:33:08;;;;;;;2.20;0.90;;;;;;;;;;5074032;28;20035;-61
2022/01/28 09:35:34;;;;;;;5.00;1.15;;;;;;;;;;5068930;28;20025;-59
2022/01/28 09:38:00;;;;;;;3.35;1.20;;;;;;;;;;5064342;28;20440;-61
2022/01/28 09:40:27;;;;;;;3.20;0.90;;;;;;;;;;5066248;28;20030;-54
2022/01/28 09:42:54;;;;;;;4.22;0.95;;;;;;;;;;5069907;28;20016;-58
2022/01/28 09:45:22;;;;;;;3.15;0.90;;;;;;;;;;5072224;28;20032;-65
2022/01/28 09:47:51;;;;;;;3.65;0.98;;;;;;;;;;5073125;28;20435;-54
2022/01/28 09:50:17;;;;;;;3.15;0.80;;;;;;;;;;5071372;28;20829;-55
2022/01/28 09:52:43;;;;;;;4.07;1.23;;;;;;;;;;5060896;28;20067;-56
2022/01/28 09:55:10;;;;;;;3.78;0.82;;;;;;;;;;5072578;28;20043;-55
2022/01/28 09:57:36;;;;;;;3.72;0.82;;;;;;;;;;5070393;28;20020;-58
2022/01/28 10:00:05;;;;;;;5.45;0.88;;;;;;;;;;5073686;28;20028;-58
2022/01/28 10:02:47;;;;;;;3.40;0.77;;;;;;;;;;5072652;28;20024;-56
2022/01/28 10:05:21;;;;;;;3.28;0.75;;;;;;;;;;5059276;28;20044;-57
2022/01/28 10:07:59;;;;;;;2.28;0.85;;;;;;;;;;5061938;28;20028;-58
2022/01/28 10:10:25;;;;;;;14.38;1.48;;;;;;;;;;5072095;28;20035;-58
2022/01/28 10:13:09;;;;;;;4.53;0.80;;;;;;;;;;5073109;28;20146;-59
2022/01/28 10:15:35;;;;;;;5.18;1.15;;;;;;;;;;5072843;28;20065;-58
2022/01/28 10:18:01;;;;;;;3.72;1.02;;;;;;;;;;5062552;28;20090;-58
2022/01/28 10:20:28;;;;;;;4.07;1.05;;;;;;;;;;5070778;28;20029;-58
2022/01/28 10:22:58;;;;;;;4.05;0.80;;;;;;;;;;5071693;28;20541;-58
2022/01/28 10:25:33;;;;;;;5.93;1.00;;;;;;;;;;5062957;28;20016;-58
2022/01/28 10:28:00;;;;;;;3.50;0.65;;;;;;;;;;5069990;28;20269;-59
2022/01/28 10:30:26;;;;;;;6.07;1.13;;;;;;;;;;5069827;28;20512;-49
2022/01/28 10:33:11;;;;;;;2.25;1.00;;;;;;;;;;5055359;28;20029;-58
2022/01/28 10:35:37;;;;;;;2.75;0.82;;;;;;;;;;5049249;28;20036;-61
2022/01/28 10:38:07;;;;;;;4.15;0.93;;;;;;;;;;5070493;28;20044;-59
2022/01/28 10:40:33;;;;;;;2.20;0.77;;;;;;;;;;5072122;28;20027;-59
2022/01/28 10:42:59;;;;;;;3.90;1.33;;;;;;;;;;5072225;28;20013;-59
2022/01/28 10:45:29;;;;;;;3.58;1.00;;;;;;;;;;5071872;28;20107;-59
2022/01/28 10:47:56;;;;;;;3.50;1.15;;;;;;;;;;5072712;28;20044;-59
2022/01/28 10:50:33;;;;;;;3.13;0.93;;;;;;;;;;5072396;28;20040;-58
2022/01/28 10:52:59;;;;;;;2.47;1.15;;;;;;;;;;5071835;28;20102;-59
2022/01/28 10:55:25;;;;;;;3.40;0.80;;;;;;;;;;5071389;28;20020;-60
2022/01/28 10:58:17;;;;;;;3.67;1.00;;;;;;;;;;5072265;28;20081;-60
2022/01/28 11:00:44;;;;;;;3.03;0.70;;;;;;;;;;5068145;28;20393;-59
2022/01/28 11:03:11;;;;;;;1.92;0.80;;;;;;;;;;5072215;28;20082;-60
2022/01/28 11:05:38;;;;;;;1.02;0.65;;;;;;;;;;5071380;28;20108;-60
2022/01/28 11:08:05;;;;;;;1.92;0.70;;;;;;;;;;5071670;28;20036;-59
2022/01/28 11:10:32;;;;;;;3.35;0.82;;;;;;;;;;5071601;28;20091;-60
2022/01/28 11:12:58;;;;;;;3.90;1.10;;;;;;;;;;5071675;28;20380;-59
2022/01/28 11:15:25;;;;;;;4.75;1.45;;;;;;;;;;5071496;28;20016;-60
2022/01/28 11:17:52;;;;;;;7.30;1.05;;;;;;;;;;5071563;28;20056;-60
2022/01/28 11:20:26;;;;;;;2.25;0.90;;;;;;;;;;5071603;28;20029;-59
2022/01/28 11:23:09;;;;;;;2.40;0.93;;;;;;;;;;5062753;28;20020;-59
2022/01/28 11:25:43;;;;;;;4.95;1.30;;;;;;;;;;5062338;28;20465;-48
2022/01/28 11:28:11;;;;;;;6.72;1.52;;;;;;;;;;5052364;28;20123;-50
2022/01/28 11:30:44;;;;;;;5.22;1.50;;;;;;;;;;5067647;28;20024;-55
2022/01/28 11:33:11;;;;;;;2.30;0.90;;;;;;;;;;5055366;28;20043;-59
2022/01/28 11:35:46;;;;;;;7.13;1.00;;;;;;;;;;5070700;28;20518;-60
2022/01/28 11:38:34;;;;;;;3.35;0.77;;;;;;;;;;5059642;28;20056;-59
2022/01/28 11:41:06;;;;;;;5.72;1.45;;;;;;;;;;5068507;28;20051;-59
2022/01/28 11:43:33;;;;;;;4.70;1.17;;;;;;;;;;5069749;28;20027;-50
2022/01/28 11:46:15;;;;;;;3.70;0.80;;;;;;;;;;5071672;28;20020;-53
2022/01/28 11:48:58;;;;;;;2.42;0.80;;;;;;;;;;5071345;28;20024;-50
2022/01/28 11:51:33;;;;;;;5.88;1.30;;;;;;;;;;5074000;28;20033;-58
2022/01/28 11:53:59;;;;;;;1.63;1.10;;;;;;;;;;5071716;28;20021;-55
2022/01/28 11:56:25;;;;;;;3.10;0.60;;;;;;;;;;5056248;28;20025;-49
2022/01/28 11:58:52;;;;;;;2.03;0.57;;;;;;;;;;5068848;28;20112;-55
2022/01/28 12:01:22;;;;;;;2.85;1.13;;;;;;;;;;5071566;28;20021;-57
2022/01/28 12:03:48;;;;;;;5.05;1.15;;;;;;;;;;5063130;28;20036;-62
2022/01/28 12:06:17;;;;;;;2.53;0.95;;;;;;;;;;5063576;28;20025;-58
2022/01/28 12:08:45;;;;;;;1.67;0.73;;;;;;;;;;5055122;28;20473;-58
2022/01/28 12:11:13;;;;;;;2.67;1.23;;;;;;;;;;5064737;28;20481;-59
2022/01/28 12:13:51;;;;;;;1.60;0.63;;;;;;;;;;5067589;28;20017;-59
2022/01/28 12:16:40;;;;;;;4.45;0.63;;;;;;;;;;5058070;28;20422;-59
2022/01/28 12:19:15;;;;;;;2.58;1.00;;;;;;;;;;5070137;28;20040;-58
2022/01/28 12:22:00;;;;;;;1.95;0.60;;;;;;;;;;5058158;28;20028;-59
2022/01/28 12:24:26;;;;;;;4.00;1.25;;;;;;;;;;5059840;28;20500;-59
2022/01/28 12:26:57;;;;;;;1.58;1.00;;;;;;;;;;5070307;28;20021;-58
2022/01/28 12:29:50;;;;;;;2.30;0.90;;;;;;;;;;5056034;28;20025;-58
2022/01/28 12:32:21;;;;;;;2.65;1.25;;;;;;;;;;5055716;28;20103;-59
2022/01/28 12:34:47;;;;;;;1.63;0.85;;;;;;;;;;5067151;28;20021;-59
2022/01/28 12:37:18;;;;;;;8.70;1.20;;;;;;;;;;5056888;28;20481;-58
2022/01/28 12:39:51;;;;;;;3.27;0.70;;;;;;;;;;5074364;28;20444;-58
2022/01/28 12:44:51;;;;;;;1.63;0.60;;;;;;;;;;5070916;28;20111;-59
2022/01/28 12:47:17;;;;;;;1.92;0.88;;;;;;;;;;5059235;28;20075;-58
2022/01/28 12:49:45;;;;;;;2.92;1.30;;;;;;;;;;5067040;28;20035;-58
2022/01/28 12:52:12;;;;;;;3.80;1.00;;;;;;;;;;5070979;28;20436;-58
2022/01/28 12:54:40;;;;;;;2.08;0.98;;;;;;;;;;5074103;28;20051;-58
2022/01/28 12:57:10;;;;;;;2.55;0.80;;;;;;;;;;5071839;28;20048;-58
2022/01/28 12:59:37;;;;;;;2.33;0.75;;;;;;;;;;5060873;28;20119;-58
2022/01/28 13:02:03;;;;;;;2.85;1.17;;;;;;;;;;5064243;28;20028;-61
2022/01/28 13:09:55;;;;;;;2.90;0.80;;;;;;;;;;5074797;28;20050;-58
2022/01/28 13:12:26;;;;;;;1.88;0.77;;;;;;;;;;5058846;28;20048;-59
2022/01/28 13:14:52;;;;;;;4.30;0.80;;;;;;;;;;5063341;28;20116;-58
2022/01/28 13:17:20;;;;;;;2.83;0.77;;;;;;;;;;5069963;28;20024;-57
2022/01/28 13:19:55;;;;;;;1.88;0.90;;;;;;;;;;5054411;28;20041;-58
2022/01/28 13:22:26;;;;;;;1.60;0.80;;;;;;;;;;5066766;28;20024;-58
2022/01/28 13:24:52;;;;;;;1.98;0.70;;;;;;;;;;5073762;28;20043;-59
2022/01/28 13:27:18;;;;;;;2.67;0.80;;;;;;;;;;5056179;28;20372;-58
2022/01/28 13:29:48;;;;;;;2.75;0.77;;;;;;;;;;5073629;28;20032;-58
2022/01/28 13:32:25;;;;;;;1.70;0.60;;;;;;;;;;5064307;28;20059;-58
2022/01/28 13:34:56;;;;;;;3.22;0.98;;;;;;;;;;5060319;28;20016;-59
2022/01/28 13:37:33;;;;;;;2.35;0.77;;;;;;;;;;5073915;28;20052;-59
2022/01/28 13:39:59;;;;;;;2.35;1.30;;;;;;;;;;5070295;28;20041;-59
2022/01/28 13:42:25;;;;;;;2.65;0.80;;;;;;;;;;5073804;28;20449;-59
2022/01/28 13:44:51;;;;;;;2.25;0.68;;;;;;;;;;5063375;28;20099;-62
2022/01/28 13:47:17;;;;;;;2.00;0.93;;;;;;;;;;5073460;28;20052;-63
2022/01/28 13:49:44;;;;;;;4.35;0.90;;;;;;;;;;5065521;28;20112;-58
2022/01/28 13:52:16;;;;;;;2.20;1.00;;;;;;;;;;5070112;28;20094;-53
2022/01/28 13:54:42;;;;;;;2.72;1.08;;;;;;;;;;5073198;28;20013;-62
2022/01/28 13:57:09;;;;;;;2.97;0.85;;;;;;;;;;5072646;28;20028;-61
2022/01/28 13:59:36;;;;;;;2.95;1.15;;;;;;;;;;5071795;28;20082;-67
2022/01/28 14:02:03;;;;;;;1.98;0.98;;;;;;;;;;5064332;28;20029;-58
2022/01/28 14:04:35;;;;;;;3.20;0.77;;;;;;;;;;5064639;28;20017;-59
2022/01/28 14:07:01;;;;;;;;;;;;;;;;;;5066113;28;20484;-60
2022/01/28 14:09:27;;;;;;;2.63;0.93;;;;;;;;;;5059089;28;19908;-60
2022/01/28 14:12:00;;;;;;;3.42;1.17;;;;;;;;;;5064257;28;20362;-63
2022/01/28 14:14:35;;;;;;;1.98;0.80;;;;;;;;;;5066760;28;20017;-63
2022/01/28 14:17:03;;;;;;;1.58;0.77;;;;;;;;;;5072925;28;20034;-62
2022/01/28 14:19:30;;;;;;;2.85;0.80;;;;;;;;;;5072423;28;20043;-61
2022/01/28 14:21:57;;;;;;;1.25;0.68;;;;;;;;;;5063574;28;20392;-62
2022/01/28 14:24:26;;;;;;;2.05;0.90;;;;;;;;;;5066251;28;20036;-62
2022/01/28 14:27:11;;;;;;;1.92;0.98;;;;;;;;;;5071988;28;20021;-62
2022/01/28 14:32:12;;;;;;;2.53;0.68;;;;;;;;;;5061503;28;20037;-63
2022/01/28 14:34:38;;;;;;;4.18;0.95;;;;;;;;;;5068051;28;20055;-62
2022/01/28 14:37:05;;;;;;;1.92;0.77;;;;;;;;;;5064624;28;20048;-63
2022/01/28 14:39:32;;;;;;;4.78;1.27;;;;;;;;;;5071558;28;20033;-62
2022/01/28 14:42:03;;;;;;;3.05;0.85;;;;;;;;;;5072651;28;20025;-51
2022/01/28 14:44:33;;;;;;;1.83;1.02;;;;;;;;;;5072880;28;20021;-54
2022/01/28 14:46:59;;;;;;;2.05;0.80;;;;;;;;;;5056182;28;20457;-51
2022/01/28 14:49:25;;;;;;;2.13;0.90;;;;;;;;;;5058047;28;20469;-52
2022/01/28 14:51:55;;;;;;;2.05;0.90;;;;;;;;;;5066098;28;20082;-55
2022/01/28 14:54:27;;;;;;;3.15;0.88;;;;;;;;;;5072129;28;20102;-50
2022/01/28 14:56:57;;;;;;;4.55;1.35;;;;;;;;;;5071599;28;20024;-51
2022/01/28 14:59:23;;;;;;;2.72;0.80;;;;;;;;;;5067662;28;20077;-58
2022/01/28 15:01:50;;;;;;;3.70;0.95;;;;;;;;;;5060282;28;20358;-45
2022/01/28 15:04:16;;;;;;;7.13;0.90;;;;;;;;;;5064737;28;20082;-55
2022/01/28 15:06:43;;;;;;;2.45;0.57;;;;;;;;;;5071531;28;20387;-57
2022/01/28 15:09:11;;;;;;;1.88;0.80;;;;;;;;;;5071779;28;20028;-50
2022/01/28 15:11:45;;;;;;;2.25;1.30;;;;;;;;;;5053564;28;20108;-59
2022/01/28 15:14:16;;;;;;;2.33;0.98;;;;;;;;;;5071690;28;20101;-61
2022/01/28 15:16:42;;;;;;;4.63;0.70;;;;;;;;;;5071806;28;20056;-62
2022/01/28 15:19:08;;;;;;;2.40;0.90;;;;;;;;;;5055139;28;20064;-53
2022/01/28 15:21:34;;;;;;;2.22;0.82;;;;;;;;;;5070722;28;20034;-45
2022/01/28 15:24:00;;;;;;;2.63;0.65;;;;;;;;;;5061781;28;20531;-46
2022/01/28 15:26:26;;;;;;;2.38;0.88;;;;;;;;;;5065676;28;20442;-49
2022/01/28 15:29:05;;;;;;;2.40;0.70;;;;;;;;;;5070559;28;20397;-47
2022/01/28 15:36:47;;;;;;;3.45;1.10;;;;;;;;;;5071145;28;20079;-44
2022/01/28 15:39:13;;;;;;;1.90;0.80;;;;;;;;;;5062883;28;20075;-48
2022/01/28 15:41:39;;;;;;;2.83;0.88;;;;;;;;;;5066379;28;20025;-53
2022/01/28 15:44:05;;;;;;;3.05;1.45;;;;;;;;;;5060514;28;20351;-51
2022/01/28 15:46:31;;;;;;;3.78;1.33;;;;;;;;;;5065500;28;20052;-51
2022/01/28 15:48:57;;;;;;;4.18;1.02;;;;;;;;;;5071503;28;20028;-58
2022/01/28 15:51:23;;;;;;;5.28;1.00;;;;;;;;;;5071415;28;20040;-45
2022/01/28 15:53:49;;;;;;;6.13;1.08;;;;;;;;;;5066404;28;20027;-65
2022/01/28 15:56:17;;;;;;;4.07;1.00;;;;;;;;;;5070093;28;20017;-68
2022/01/28 15:58:43;;;;;;;7.47;0.93;;;;;;;;;;5070129;28;20020;-67
2022/01/28 16:01:09;;;;;;;4.45;1.08;;;;;;;;;;5070390;28;20552;-65
2022/01/28 16:03:35;;;;;;;4.65;1.08;;;;;;;;;;5064190;28;20061;-68
2022/01/28 16:06:01;;;;;;;5.00;0.95;;;;;;;;;;5061831;28;20067;-63
2022/01/28 16:08:28;;;;;;;4.15;1.02;;;;;;;;;;5065289;28;20028;-64
2022/01/28 16:11:13;;;;;;;3.92;1.00;;;;;;;;;;5055670;28;20021;-64
2022/01/28 16:13:52;;;;;;;3.75;1.50;;;;;;;;;;5067587;28;20025;-65
2022/01/28 16:19:04;;;;;;;4.50;0.90;;;;;;;;;;5062842;28;20136;-66
2022/01/28 16:21:30;;;;;;;3.88;1.08;;;;;;;;;;5069492;28;20080;-64
2022/01/28 16:23:58;;;;;;;3.22;1.25;;;;;;;;;;5064283;28;20115;-65
2022/01/28 16:26:24;;;;;;;5.18;1.45;;;;;;;;;;5069927;28;20021;-64
2022/01/28 16:28:50;;;;;;;3.38;0.70;;;;;;;;;;5073855;28;20542;-65
2022/01/28 16:31:16;;;;;;;2.33;0.95;;;;;;;;;;5059224;28;20016;-64
2022/01/28 16:33:42;;;;;;;1.48;1.00;;;;;;;;;;5067360;28;20163;-67